Wetterdaten: Woche 19.08.02 - 25.08.02 (KW34)
Datum Zeit Temperatur Luftfeuchte Luftdruck Regenmenge Wind Richtung Taupunkt Windchill
19.08.2002 00:00 15.8 C 91 % 1014.9 hPa 0.0 l/m 0.6 km/h (0 Bft) O-SO 14.3 C 15.8 C
19.08.2002 01:00 14.9 C 95 % 1014.9 hPa 0.0 l/m 0.0 km/h (0 Bft) N 14.1 C 14.9 C
19.08.2002 02:00 14.2 C 96 % 1014.9 hPa 0.0 l/m 0.0 km/h (0 Bft) N 13.6 C 14.2 C
19.08.2002 03:00 13.8 C 98 % 1014.9 hPa 0.0 l/m 0.0 km/h (0 Bft) N 13.4 C 13.8 C
19.08.2002 04:00 13.3 C 99 % 1014.9 hPa 0.0 l/m 0.0 km/h (0 Bft) N 13.1 C 13.3 C
19.08.2002 05:00 12.9 C 100 % 1014.9 hPa 0.0 l/m 0.0 km/h (0 Bft) N 12.8 C 12.9 C
19.08.2002 06:00 12.7 C 100 % 1015.4 hPa 0.0 l/m 0.0 km/h (0 Bft) N 12.7 C 12.7 C
19.08.2002 07:00 14.3 C 100 % 1015.9 hPa 0.0 l/m 0.0 km/h (0 Bft) N 14.3 C 14.3 C
19.08.2002 08:00 15.7 C 91 % 1015.9 hPa 0.0 l/m 0.0 km/h (0 Bft) N 14.1 C 15.7 C
19.08.2002 09:00 17.6 C 82 % 1015.9 hPa 0.0 l/m 0.0 km/h (0 Bft) N 14.5 C 17.6 C
19.08.2002 10:00 20.2 C 72 % 1015.9 hPa 0.0 l/m 0.0 km/h (0 Bft) O-SO 14.9 C 20.2 C
19.08.2002 11:00 23.0 C 60 % 1015.9 hPa 0.0 l/m 3.5 km/h (1 Bft) O-SO 14.8 C 23.0 C
19.08.2002 12:00 25.3 C 54 % 1015.9 hPa 0.0 l/m 5.8 km/h (2 Bft) O-SO 15.2 C 25.3 C
19.08.2002 13:00 27.1 C 48 % 1015.9 hPa 0.0 l/m 6.6 km/h (2 Bft) O-SO 15.2 C 27.1 C
19.08.2002 14:00 28.8 C 43 % 1015.3 hPa 0.0 l/m 4.5 km/h (1 Bft) O-SO 15.0 C 28.8 C
19.08.2002 15:00 30.0 C 41 % 1014.9 hPa 0.0 l/m 5.7 km/h (1 Bft) O-SO 15.2 C 30.0 C
19.08.2002 16:00 30.8 C 36 % 1014.9 hPa 0.0 l/m 3.3 km/h (1 Bft) O-SO 14.2 C 30.8 C
19.08.2002 17:00 30.9 C 35 % 1014.8 hPa 0.0 l/m 1.4 km/h (1 Bft) O-SO 13.5 C 30.9 C
19.08.2002 18:00 29.5 C 39 % 1014.0 hPa 0.0 l/m 1.1 km/h (1 Bft) O-SO 13.8 C 29.5 C
19.08.2002 19:00 26.6 C 52 % 1014.9 hPa 0.0 l/m 2.4 km/h (1 Bft) O-SO 15.7 C 26.6 C
19.08.2002 20:00 23.4 C 65 % 1014.9 hPa 0.0 l/m 2.4 km/h (1 Bft) O-SO 16.4 C 23.4 C
19.08.2002 21:00 21.6 C 72 % 1015.6 hPa 0.0 l/m 1.3 km/h (1 Bft) O-SO 16.3 C 21.6 C
19.08.2002 22:00 20.3 C 78 % 1015.9 hPa 0.0 l/m 0.8 km/h (0 Bft) O-SO 16.3 C 20.3 C
19.08.2002 23:00 19.4 C 84 % 1016.4 hPa 0.0 l/m 0.6 km/h (0 Bft) O-SO 16.7 C 19.4 C
20.08.2002 00:00 18.5 C 90 % 1015.9 hPa 0.0 l/m 0.8 km/h (0 Bft) O-SO 16.8 C 18.5 C
20.08.2002 01:00 17.8 C 91 % 1015.9 hPa 0.0 l/m 0.0 km/h (0 Bft) O-SO 16.3 C 17.8 C
20.08.2002 02:00 17.2 C 95 % 1015.9 hPa 0.0 l/m 1.5 km/h (1 Bft) O-SO 16.5 C 17.2 C
20.08.2002 03:00 16.9 C 97 % 1015.9 hPa 0.0 l/m 1.8 km/h (1 Bft) O-SO 16.5 C 16.9 C
20.08.2002 04:00 16.8 C 96 % 1015.9 hPa 0.0 l/m 2.1 km/h (1 Bft) O-SO 16.1 C 16.8 C
20.08.2002 05:00 16.8 C 98 % 1015.9 hPa 0.0 l/m 1.0 km/h (0 Bft) O-SO 16.4 C 16.8 C
20.08.2002 06:00 16.4 C 98 % 1015.9 hPa 0.0 l/m 0.6 km/h (0 Bft) O-SO 16.1 C 16.4 C
20.08.2002 07:00 16.8 C 97 % 1015.9 hPa 0.0 l/m 2.9 km/h (1 Bft) O-SO 16.2 C 16.8 C
20.08.2002 08:00 18.2 C 90 % 1015.9 hPa 0.0 l/m 0.7 km/h (0 Bft) O-SO 16.5 C 18.2 C
20.08.2002 09:00 19.1 C 85 % 1015.9 hPa 0.0 l/m 0.7 km/h (0 Bft) O-NO 16.5 C 19.1 C
20.08.2002 10:00 21.3 C 75 % 1015.9 hPa 0.0 l/m 0.2 km/h (0 Bft) O-SO 16.7 C 21.3 C
20.08.2002 11:00 23.8 C 65 % 1015.5 hPa 0.0 l/m 0.4 km/h (0 Bft) W-NW 16.7 C 23.8 C
20.08.2002 12:00 25.8 C 58 % 1014.9 hPa 0.0 l/m 1.7 km/h (1 Bft) O-SO 16.9 C 25.8 C
20.08.2002 13:00 26.7 C 53 % 1014.9 hPa 0.0 l/m 11.9 km/h (2 Bft) NW 16.2 C 26.7 C
20.08.2002 14:00 26.1 C 48 % 1014.9 hPa 0.0 l/m 25.6 km/h (4 Bft) NW 14.2 C 26.1 C
20.08.2002 15:00 25.1 C 53 % 1014.5 hPa 0.0 l/m 12.5 km/h (3 Bft) W-NW 14.7 C 25.1 C
20.08.2002 16:00 26.2 C 49 % 1014.9 hPa 0.0 l/m 6.9 km/h (2 Bft) NW 14.5 C 26.2 C
20.08.2002 17:00 22.2 C 66 % 1015.5 hPa 0.3 l/m 12.5 km/h (3 Bft) NW 15.4 C 22.2 C
20.08.2002 18:00 20.0 C 86 % 1015.9 hPa 0.0 l/m 1.5 km/h (1 Bft) O-SO 17.5 C 20.0 C
20.08.2002 19:00 20.0 C 84 % 1015.9 hPa 0.0 l/m 2.9 km/h (1 Bft) SO 17.1 C 20.0 C
20.08.2002 20:00 19.2 C 86 % 1016.3 hPa 0.0 l/m 2.6 km/h (1 Bft) SO 16.7 C 19.2 C
20.08.2002 21:00 18.6 C 91 % 1017.0 hPa 0.0 l/m 4.4 km/h (1 Bft) SO 17.1 C 18.6 C
20.08.2002 22:00 18.0 C 96 % 1017.0 hPa 0.3 l/m 2.2 km/h (1 Bft) O-SO 17.4 C 18.0 C
20.08.2002 23:00 17.6 C 98 % 1017.0 hPa 0.0 l/m 5.5 km/h (1 Bft) O-SO 17.3 C 17.6 C
21.08.2002 00:00 17.0 C 99 % 1017.0 hPa 0.0 l/m 1.4 km/h (1 Bft) O-SO 16.9 C 17.0 C
21.08.2002 01:00 17.3 C 100 % 1017.0 hPa 0.0 l/m 1.4 km/h (1 Bft) O-SO 17.3 C 17.3 C
21.08.2002 02:00 16.9 C 98 % 1017.0 hPa 0.0 l/m 0.1 km/h (0 Bft) N 16.6 C 16.9 C
21.08.2002 03:00 17.0 C 94 % 1016.9 hPa 0.0 l/m 0.1 km/h (0 Bft) N 16.0 C 17.0 C
21.08.2002 04:00 16.7 C 95 % 1016.0 hPa 0.0 l/m 0.0 km/h (0 Bft) N 16.0 C 16.7 C
21.08.2002 05:00 16.6 C 94 % 1015.9 hPa 0.0 l/m 0.6 km/h (0 Bft) NW 15.6 C 16.6 C
21.08.2002 06:00 16.8 C 85 % 1015.9 hPa 0.0 l/m 2.7 km/h (1 Bft) NW 14.3 C 16.8 C
21.08.2002 07:00 17.0 C 82 % 1016.3 hPa 0.0 l/m 7.2 km/h (2 Bft) NW 13.9 C 17.0 C
21.08.2002 08:00 17.5 C 79 % 1017.0 hPa 0.0 l/m 8.7 km/h (2 Bft) NW 13.7 C 17.5 C
21.08.2002 09:00 17.9 C 74 % 1017.0 hPa 0.0 l/m 11.8 km/h (2 Bft) NW 13.3 C 17.9 C
21.08.2002 10:00 18.7 C 68 % 1017.0 hPa 0.0 l/m 13.6 km/h (3 Bft) NW 12.6 C 18.7 C
21.08.2002 11:00 19.7 C 63 % 1017.0 hPa 0.0 l/m 12.4 km/h (3 Bft) NW 12.4 C 19.7 C
21.08.2002 12:00 20.8 C 56 % 1015.9 hPa 0.0 l/m 15.3 km/h (3 Bft) NW 11.8 C 20.8 C
21.08.2002 13:00 21.7 C 50 % 1015.9 hPa 0.0 l/m 17.7 km/h (3 Bft) NW 10.7 C 21.7 C
21.08.2002 14:00 22.6 C 46 % 1015.6 hPa 0.0 l/m 14.4 km/h (3 Bft) NW 10.2 C 22.6 C
21.08.2002 15:00 21.9 C 45 % 1014.9 hPa 0.0 l/m 16.2 km/h (3 Bft) NW 9.3 C 21.9 C
21.08.2002 16:00 23.0 C 40 % 1014.9 hPa 0.0 l/m 17.6 km/h (3 Bft) NW 8.9 C 23.0 C
21.08.2002 17:00 22.7 C 42 % 1014.9 hPa 0.0 l/m 14.9 km/h (3 Bft) NW 9.0 C 22.7 C
21.08.2002 18:00 22.8 C 44 % 1014.9 hPa 0.0 l/m 11.4 km/h (2 Bft) NW 9.8 C 22.8 C
21.08.2002 19:00 22.0 C 51 % 1015.6 hPa 0.0 l/m 7.0 km/h (2 Bft) NW 11.3 C 22.0 C
21.08.2002 20:00 20.0 C 54 % 1015.9 hPa 0.0 l/m 1.2 km/h (1 Bft) W-NW 10.5 C 20.0 C
21.08.2002 21:00 19.0 C 63 % 1016.5 hPa 0.0 l/m 0.9 km/h (0 Bft) NW 11.9 C 19.0 C
21.08.2002 22:00 17.3 C 72 % 1017.0 hPa 0.0 l/m 0.0 km/h (0 Bft) N 12.1 C 17.3 C
21.08.2002 23:00 15.6 C 80 % 1017.0 hPa 0.0 l/m 0.3 km/h (0 Bft) SO 12.3 C 15.6 C
22.08.2002 00:00 14.3 C 87 % 1017.0 hPa 0.0 l/m 0.9 km/h (0 Bft) SO 12.2 C 14.3 C
22.08.2002 01:00 13.0 C 93 % 1016.1 hPa 0.0 l/m 2.3 km/h (1 Bft) O-SO 11.9 C 13.0 C
22.08.2002 02:00 12.4 C 96 % 1015.9 hPa 0.0 l/m 1.3 km/h (1 Bft) O-SO 11.7 C 12.4 C
22.08.2002 03:00 11.6 C 96 % 1015.9 hPa 0.0 l/m 0.9 km/h (0 Bft) O-SO 11.0 C 11.6 C
22.08.2002 04:00 11.3 C 97 % 1015.9 hPa 0.0 l/m 0.3 km/h (0 Bft) N 10.8 C 11.3 C
22.08.2002 05:00 10.5 C 99 % 1015.9 hPa 0.0 l/m 0.0 km/h (0 Bft) N 10.3 C 10.5 C
22.08.2002 06:00 10.3 C 100 % 1015.9 hPa 0.0 l/m 0.2 km/h (0 Bft) O-SO 10.3 C 10.3 C
22.08.2002 07:00 11.2 C 98 % 1016.7 hPa 0.0 l/m 0.0 km/h (0 Bft) N 10.9 C 11.2 C
22.08.2002 08:00 12.9 C 89 % 1017.0 hPa 0.0 l/m 0.8 km/h (0 Bft) NO 11.1 C 12.9 C
22.08.2002 09:00 14.4 C 82 % 1016.6 hPa 0.0 l/m 0.4 km/h (0 Bft) W 11.3 C 14.4 C
22.08.2002 10:00 17.5 C 74 % 1015.9 hPa 0.0 l/m 4.7 km/h (1 Bft) O-SO 12.9 C 17.5 C
22.08.2002 11:00 20.4 C 63 % 1015.9 hPa 0.0 l/m 10.3 km/h (2 Bft) O-SO 13.2 C 20.4 C
22.08.2002 12:00 22.3 C 56 % 1015.9 hPa 0.0 l/m 11.4 km/h (2 Bft) O-SO 13.0 C 22.3 C
22.08.2002 13:00 23.4 C 49 % 1015.2 hPa 0.0 l/m 10.2 km/h (2 Bft) O-SO 12.2 C 23.4 C
22.08.2002 14:00 24.4 C 44 % 1014.9 hPa 0.0 l/m 9.2 km/h (2 Bft) O-SO 11.5 C 24.4 C
22.08.2002 15:00 25.4 C 40 % 1014.6 hPa 0.0 l/m 8.2 km/h (2 Bft) O-SO 10.7 C 25.4 C
22.08.2002 16:00 24.3 C 41 % 1013.9 hPa 0.0 l/m 6.1 km/h (2 Bft) O-SO 10.1 C 24.3 C
22.08.2002 17:00 25.2 C 42 % 1013.9 hPa 0.0 l/m 2.6 km/h (1 Bft) O-SO 11.5 C 25.2 C
22.08.2002 18:00 24.3 C 45 % 1013.9 hPa 0.0 l/m 8.8 km/h (2 Bft) O-SO 11.7 C 24.3 C
22.08.2002 19:00 22.3 C 51 % 1013.9 hPa 0.0 l/m 3.7 km/h (1 Bft) O-SO 11.8 C 22.3 C
22.08.2002 20:00 19.1 C 65 % 1014.7 hPa 0.0 l/m 1.6 km/h (1 Bft) O-SO 12.2 C 19.1 C
22.08.2002 21:00 16.0 C 80 % 1014.9 hPa 0.0 l/m 1.8 km/h (1 Bft) O-SO 12.6 C 16.0 C
22.08.2002 22:00 14.8 C 86 % 1015.5 hPa 0.0 l/m 0.4 km/h (0 Bft) O-SO 12.4 C 14.8 C
22.08.2002 23:00 14.2 C 89 % 1015.9 hPa 0.0 l/m 0.0 km/h (0 Bft) N 12.4 C 14.2 C
23.08.2002 00:00 14.0 C 88 % 1015.9 hPa 0.0 l/m 2.2 km/h (1 Bft) O-SO 12.1 C 14.0 C
23.08.2002 01:00 13.4 C 93 % 1015.9 hPa 0.0 l/m 0.3 km/h (0 Bft) O-SO 12.2 C 13.4 C
23.08.2002 02:00 13.4 C 92 % 1015.2 hPa 0.0 l/m 0.0 km/h (0 Bft) N 12.1 C 13.4 C
23.08.2002 03:00 12.9 C 96 % 1014.9 hPa 0.0 l/m 0.2 km/h (0 Bft) O-SO 12.2 C 12.9 C
23.08.2002 04:00 12.8 C 96 % 1015.0 hPa 0.0 l/m 0.1 km/h (0 Bft) O-SO 12.2 C 12.8 C
23.08.2002 05:00 13.3 C 94 % 1015.3 hPa 0.0 l/m 0.0 km/h (0 Bft) N 12.2 C 13.3 C
23.08.2002 06:00 13.5 C 94 % 1015.9 hPa 0.0 l/m 0.5 km/h (0 Bft) O-SO 12.5 C 13.5 C
23.08.2002 07:00 14.1 C 93 % 1015.9 hPa 0.0 l/m 0.2 km/h (0 Bft) N 12.9 C 14.1 C
23.08.2002 08:00 14.8 C 92 % 1016.2 hPa 0.0 l/m 0.2 km/h (0 Bft) W-NW 13.5 C 14.8 C
23.08.2002 09:00 15.5 C 89 % 1017.0 hPa 0.0 l/m 0.1 km/h (0 Bft) N 13.8 C 15.5 C
23.08.2002 10:00 17.4 C 78 % 1017.0 hPa 0.0 l/m 0.0 km/h (0 Bft) N 13.5 C 17.4 C
23.08.2002 11:00 19.1 C 70 % 1017.0 hPa 0.0 l/m 0.0 km/h (0 Bft) N 13.5 C 19.1 C
23.08.2002 12:00 19.9 C 65 % 1017.0 hPa 0.0 l/m 1.5 km/h (1 Bft) O-SO 13.2 C 19.9 C
23.08.2002 13:00 20.7 C 63 % 1017.0 hPa 0.0 l/m 0.1 km/h (0 Bft) N 13.3 C 20.7 C
23.08.2002 14:00 21.2 C 63 % 1017.0 hPa 0.0 l/m 1.4 km/h (1 Bft) SO 13.9 C 21.2 C
23.08.2002 15:00 21.9 C 62 % 1016.7 hPa 0.0 l/m 2.2 km/h (1 Bft) O-SO 14.3 C 21.9 C
23.08.2002 16:00 23.9 C 57 % 1015.9 hPa 0.0 l/m 5.1 km/h (1 Bft) O-SO 14.9 C 23.9 C
23.08.2002 17:00 24.8 C 53 % 1015.9 hPa 0.0 l/m 3.4 km/h (1 Bft) O-SO 14.5 C 24.8 C
23.08.2002 18:00 23.7 C 57 % 1015.9 hPa 0.0 l/m 6.3 km/h (2 Bft) O-SO 14.7 C 23.7 C
23.08.2002 19:00 22.6 C 64 % 1015.9 hPa 0.0 l/m 5.5 km/h (1 Bft) O-SO 15.3 C 22.6 C
23.08.2002 20:00 20.4 C 69 % 1015.9 hPa 0.0 l/m 6.2 km/h (2 Bft) O-SO 14.6 C 20.4 C
23.08.2002 21:00 18.4 C 81 % 1016.6 hPa 0.0 l/m 1.4 km/h (1 Bft) O-SO 15.1 C 18.4 C
23.08.2002 22:00 16.9 C 90 % 1016.0 hPa 0.0 l/m 0.0 km/h (0 Bft) N 15.3 C 16.9 C
23.08.2002 23:00 15.5 C 94 % 1015.9 hPa 0.0 l/m 0.0 km/h (0 Bft) N 14.6 C 15.5 C
24.08.2002 00:00 15.0 C 97 % 1016.5 hPa 0.0 l/m 0.1 km/h (0 Bft) O-SO 14.6 C 15.0 C
24.08.2002 01:00 14.2 C 99 % 1017.0 hPa 0.0 l/m 1.1 km/h (1 Bft) O-SO 14.1 C 14.2 C
24.08.2002 02:00 13.5 C 100 % 1017.0 hPa 0.0 l/m 0.0 km/h (0 Bft) N 13.4 C 13.5 C
24.08.2002 03:00 13.1 C 100 % 1017.0 hPa 0.0 l/m 0.4 km/h (0 Bft) O-SO 13.1 C 13.1 C
24.08.2002 04:00 13.1 C 100 % 1017.8 hPa 0.0 l/m 1.1 km/h (0 Bft) O-SO 13.1 C 13.1 C
24.08.2002 05:00 12.6 C 100 % 1017.6 hPa 0.0 l/m 4.0 km/h (1 Bft) O-SO 12.6 C 12.6 C
24.08.2002 06:00 13.3 C 100 % 1018.0 hPa 0.0 l/m 0.4 km/h (0 Bft) O-SO 13.2 C 13.3 C
24.08.2002 07:00 14.0 C 99 % 1018.5 hPa 0.0 l/m 0.0 km/h (0 Bft) N 13.9 C 14.0 C
24.08.2002 08:00 14.4 C 97 % 1019.0 hPa 0.0 l/m 0.2 km/h (0 Bft) W-NW 13.9 C 14.4 C
24.08.2002 09:00 15.8 C 91 % 1019.0 hPa 0.0 l/m 0.0 km/h (0 Bft) N 14.3 C 15.8 C
24.08.2002 10:00 17.1 C 85 % 1019.8 hPa 0.0 l/m 0.4 km/h (0 Bft) W-NW 14.5 C 17.1 C
24.08.2002 11:00 19.7 C 75 % 1019.8 hPa 0.0 l/m 0.9 km/h (0 Bft) O-SO 15.2 C 19.7 C
24.08.2002 12:00 22.6 C 63 % 1019.0 hPa 0.0 l/m 3.5 km/h (1 Bft) O-SO 15.0 C 22.6 C
24.08.2002 13:00 24.2 C 53 % 1019.0 hPa 0.0 l/m 3.1 km/h (1 Bft) NW 14.1 C 24.2 C
24.08.2002 14:00 25.4 C 49 % 1018.7 hPa 0.0 l/m 2.2 km/h (1 Bft) W-NW 13.7 C 25.4 C
24.08.2002 15:00 26.3 C 44 % 1018.0 hPa 0.0 l/m 5.4 km/h (1 Bft) W 13.1 C 26.3 C
24.08.2002 16:00 26.6 C 45 % 1018.0 hPa 0.0 l/m 6.0 km/h (2 Bft) W-NW 13.8 C 26.6 C
24.08.2002 17:00 26.0 C 49 % 1018.0 hPa 0.0 l/m 7.6 km/h (2 Bft) NW 14.5 C 26.0 C
24.08.2002 18:00 25.1 C 58 % 1017.9 hPa 0.0 l/m 5.6 km/h (1 Bft) W-NW 16.3 C 25.1 C
24.08.2002 19:00 23.5 C 61 % 1018.0 hPa 0.0 l/m 3.4 km/h (1 Bft) W-NW 15.7 C 23.5 C
24.08.2002 20:00 21.7 C 64 % 1018.1 hPa 0.0 l/m 0.4 km/h (0 Bft) W 14.6 C 21.7 C
24.08.2002 21:00 20.2 C 68 % 1019.0 hPa 0.0 l/m 0.0 km/h (0 Bft) N 14.1 C 20.2 C
24.08.2002 22:00 19.1 C 75 % 1019.4 hPa 0.0 l/m 3.2 km/h (1 Bft) O 14.7 C 19.1 C
24.08.2002 23:00 18.8 C 79 % 1020.1 hPa 0.0 l/m 1.0 km/h (0 Bft) O-SO 15.2 C 18.8 C
25.08.2002 00:00 18.4 C 82 % 1020.1 hPa 0.0 l/m 0.0 km/h (0 Bft) N 15.2 C 18.4 C
25.08.2002 01:00 18.0 C 83 % 1020.1 hPa 0.0 l/m 0.0 km/h (0 Bft) N 15.2 C 18.0 C
25.08.2002 02:00 17.6 C 84 % 1020.1 hPa 0.0 l/m 0.0 km/h (0 Bft) N 14.9 C 17.6 C
25.08.2002 03:00 17.3 C 84 % 1020.1 hPa 0.0 l/m 0.0 km/h (0 Bft) N 14.7 C 17.3 C
25.08.2002 04:00 16.9 C 88 % 1020.1 hPa 0.0 l/m 0.0 km/h (0 Bft) N 14.9 C 16.9 C
25.08.2002 05:00 16.7 C 90 % 1020.1 hPa 0.0 l/m 0.0 km/h (0 Bft) N 15.0 C 16.7 C
25.08.2002 06:00 16.6 C 91 % 1020.1 hPa 0.0 l/m 0.0 km/h (0 Bft) N 15.1 C 16.6 C
25.08.2002 07:00 17.1 C 88 % 1020.1 hPa 0.0 l/m 0.0 km/h (0 Bft) N 15.2 C 17.1 C
25.08.2002 08:00 17.5 C 88 % 1020.3 hPa 0.0 l/m 0.2 km/h (0 Bft) SO 15.5 C 17.5 C
25.08.2002 09:00 19.0 C 80 % 1020.5 hPa 0.0 l/m 1.5 km/h (1 Bft) NW 15.3 C 19.0 C
25.08.2002 10:00 20.9 C 70 % 1020.1 hPa 0.0 l/m 0.8 km/h (0 Bft) NW 15.3 C 20.9 C
25.08.2002 11:00 22.9 C 62 % 1020.1 hPa 0.0 l/m 12.9 km/h (3 Bft) O-SO 15.3 C 22.9 C
25.08.2002 12:00 24.0 C 58 % 1019.7 hPa 0.0 l/m 16.9 km/h (3 Bft) O-SO 15.3 C 24.0 C
25.08.2002 13:00 24.9 C 56 % 1019.0 hPa 0.0 l/m 15.0 km/h (3 Bft) O-SO 15.4 C 24.9 C
25.08.2002 14:00 26.3 C 52 % 1018.6 hPa 0.0 l/m 12.4 km/h (3 Bft) O-SO 15.6 C 26.3 C
25.08.2002 15:00 27.9 C 46 % 1018.0 hPa 0.0 l/m 15.6 km/h (3 Bft) O-SO 15.2 C 27.9 C
25.08.2002 16:00 27.6 C 47 % 1017.6 hPa 0.0 l/m 9.1 km/h (2 Bft) O-SO 15.1 C 27.6 C
25.08.2002 17:00 27.8 C 49 % 1017.0 hPa 0.0 l/m 14.6 km/h (3 Bft) O-SO 15.9 C 27.8 C
25.08.2002 18:00 26.8 C 52 % 1017.0 hPa 0.0 l/m 11.0 km/h (2 Bft) O-SO 16.2 C 26.8 C
25.08.2002 19:00 24.1 C 58 % 1017.0 hPa 0.0 l/m 7.7 km/h (2 Bft) N-NO 15.3 C 24.1 C
25.08.2002 20:00 22.1 C 59 % 1017.0 hPa 0.0 l/m 8.7 km/h (2 Bft) NO 13.7 C 22.1 C
25.08.2002 21:00 19.8 C 81 % 1017.9 hPa 10.2 l/m 4.7 km/h (1 Bft) N 16.1 C 19.8 C
25.08.2002 22:00 18.2 C 98 % 1018.0 hPa 0.9 l/m 3.0 km/h (1 Bft) N-NO 17.9 C 18.2 C
25.08.2002 23:00 17.9 C 98 % 1017.3 hPa 0.0 l/m 1.8 km/h (1 Bft) O-SO 17.5 C 17.9 C
Min-Datum _ 22.08.02 19.08.02 19.08.02 - 19.08.02 - 22.08.02 22.08.02
_ Min-Zeit 06:28 17:13 17:58 - 00:01 - 15:46 06:28
Minimum _ 10.0 C 32 % 1013.9 hPa - 0.0 km/h (0 Bft) - 7.1 C 10.0 C
Max-Datum _ 19.08.02 19.08.02 25.08.02 25.08.02 20.08.02 - 25.08.02 19.08.02
_ Max-Zeit 16:49 05:19 08:49 21:52 13:59 - 22:29 16:49
Maximum _ 31.3 C 100 % 1021.1 hPa 10.2 l/m 44.1 km/h
NW (6 Bft)
- 18.3 C 31.3 C
Durchschnitt _ 19.3 C 75 % 1016.6 hPa #11.7 l/m 3.7 km/h (1 Bft) O-SO 14.1 C 19.3 C

Durchschnitt Minimum Temp.18.4 C
Durchschnitt Maximum Temp.20.2 C
© Kaiko 2002